Time;durP1;ratioP1;P1;durP2;ratioP2;P2;SDS_P1;SDS_P2;PMS_P1;PMS_P2;Temp;Humidity;BMP_temperature;BMP_pressure;BME280_temperature;BME280_humidity;BME280_pressure;Samples;Min_cycle;Max_cycle;Signal;HPM_P1;HPM_P2
2023/09/22 00:01:12;;;;;;;;;;;13.10;78.10;;;;;;5068478;28;19951;-75
2023/09/22 00:03:38;;;;;;;;;;;13.00;78.00;;;;;;5033938;28;19990;-76
2023/09/22 00:06:03;;;;;;;;;;;13.00;78.10;;;;;;5049649;28;19919;-75
2023/09/22 00:08:30;;;;;;;;;;;13.00;78.10;;;;;;5068344;28;19934;-76
2023/09/22 00:10:55;;;;;;;;;;;13.00;78.10;;;;;;5068264;28;20343;-76
2023/09/22 00:13:21;;;;;;;;;;;13.00;78.10;;;;;;5050522;28;19908;-77
2023/09/22 00:15:47;;;;;;;;;;;13.00;78.10;;;;;;5050395;28;19923;-76
2023/09/22 00:18:12;;;;;;;;;;;13.00;78.10;;;;;;5050285;28;19919;-75
2023/09/22 00:20:38;;;;;;;;;;;13.00;78.10;;;;;;5068094;28;20394;-76
2023/09/22 00:23:04;;;;;;;;;;;13.00;78.10;;;;;;5049936;28;20311;-76
2023/09/22 00:25:31;;;;;;;;;;;13.00;78.00;;;;;;5049989;28;20011;-76
2023/09/22 00:27:56;;;;;;;;;;;13.00;78.10;;;;;;5050347;28;19939;-76
2023/09/22 00:30:22;;;;;;;;;;;12.90;78.10;;;;;;5050110;28;20364;-76
2023/09/22 00:32:48;;;;;;;;;;;12.90;78.10;;;;;;5067959;28;19919;-76
2023/09/22 00:35:14;;;;;;;;;;;12.90;78.10;;;;;;5050042;28;19916;-76
2023/09/22 00:37:40;;;;;;;;;;;12.90;78.10;;;;;;5033178;28;20421;-76
2023/09/22 00:40:08;;;;;;;;;;;13.00;78.20;;;;;;5049856;28;19918;-76
2023/09/22 00:42:34;;;;;;;;;;;13.00;78.20;;;;;;5049929;28;20409;-76
2023/09/22 00:44:59;;;;;;;;;;;13.00;78.20;;;;;;5049716;28;20343;-76
2023/09/22 00:47:25;;;;;;;;;;;13.10;78.10;;;;;;5049693;28;19908;-77
2023/09/22 00:49:51;;;;;;;;;;;13.10;78.20;;;;;;5067831;28;20283;-78
2023/09/22 00:52:18;;;;;;;;;;;13.10;78.10;;;;;;5049789;28;19919;-77
2023/09/22 00:54:44;;;;;;;;;;;13.20;78.10;;;;;;5033510;28;19912;-77
2023/09/22 00:57:10;;;;;;;;;;;13.10;78.00;;;;;;5049648;28;20011;-77
2023/09/22 00:59:35;;;;;;;;;;;13.20;78.10;;;;;;5049813;28;19916;-77
2023/09/22 01:02:01;;;;;;;;;;;13.10;78.00;;;;;;5049683;28;19912;-77
2023/09/22 01:04:28;;;;;;;;;;;13.10;78.10;;;;;;5050018;28;19913;-77
2023/09/22 01:06:54;;;;;;;;;;;13.10;78.10;;;;;;5067405;28;20305;-78
2023/09/22 01:09:19;;;;;;;;;;;13.10;78.10;;;;;;5033133;28;19913;-77
2023/09/22 01:11:45;;;;;;;;;;;13.10;78.10;;;;;;5033189;28;19913;-76
2023/09/22 01:14:10;;;;;;;;;;;13.00;78.10;;;;;;5049706;28;19913;-77
2023/09/22 01:16:37;;;;;;;;;;;13.00;78.10;;;;;;5067945;28;19923;-76
2023/09/22 01:19:10;;;;;;;;;;;13.00;78.10;;;;;;5071731;28;19946;-77
2023/09/22 01:21:35;;;;;;;;;;;12.90;78.00;;;;;;5053431;28;19921;-76
2023/09/22 01:24:01;;;;;;;;;;;12.90;78.10;;;;;;5053674;28;20326;-77
2023/09/22 01:26:26;;;;;;;;;;;12.90;78.10;;;;;;5036723;28;20015;-77
2023/09/22 01:28:52;;;;;;;;;;;12.90;78.20;;;;;;5036740;28;19966;-77
2023/09/22 01:31:18;;;;;;;;;;;12.90;78.20;;;;;;5053729;28;19909;-77
2023/09/22 01:33:46;;;;;;;;;;;12.90;78.20;;;;;;5053465;28;19914;-77
2023/09/22 01:36:13;;;;;;;;;;;12.90;78.20;;;;;;5071249;28;20222;-77
2023/09/22 01:38:39;;;;;;;;;;;12.90;78.20;;;;;;5071334;28;20006;-77
2023/09/22 01:41:06;;;;;;;;;;;12.90;78.10;;;;;;5053205;28;20059;-77
2023/09/22 01:43:32;;;;;;;;;;;12.90;78.10;;;;;;5071389;28;19913;-77
2023/09/22 01:45:58;;;;;;;;;;;12.90;78.10;;;;;;5053261;28;19917;-77
2023/09/22 01:48:24;;;;;;;;;;;12.90;78.10;;;;;;5071086;28;19908;-76
2023/09/22 01:50:50;;;;;;;;;;;12.90;78.10;;;;;;5071033;28;20004;-77
2023/09/22 01:53:15;;;;;;;;;;;12.90;78.10;;;;;;5052904;28;20003;-77
2023/09/22 01:55:41;;;;;;;;;;;12.80;78.20;;;;;;5053189;28;20387;-77
2023/09/22 01:58:07;;;;;;;;;;;12.80;78.10;;;;;;5070904;28;20294;-76
2023/09/22 02:00:36;;;;;;;;;;;12.80;78.10;;;;;;5071276;28;20387;-77
2023/09/22 02:03:02;;;;;;;;;;;12.80;78.10;;;;;;5052985;28;19920;-77
2023/09/22 02:05:29;;;;;;;;;;;12.80;78.10;;;;;;5070704;28;19917;-77
2023/09/22 02:07:55;;;;;;;;;;;12.80;78.10;;;;;;5053090;28;19912;-77
2023/09/22 02:10:21;;;;;;;;;;;12.70;78.00;;;;;;5052756;28;20277;-76
2023/09/22 02:12:47;;;;;;;;;;;12.70;78.10;;;;;;5036009;28;19920;-77
2023/09/22 02:15:13;;;;;;;;;;;12.70;78.10;;;;;;5052590;28;19919;-77
2023/09/22 02:17:38;;;;;;;;;;;12.70;78.20;;;;;;5052499;28;19913;-76
2023/09/22 02:22:45;;;;;;;;;;;12.70;78.20;;;;;;5070383;28;20013;-77
2023/09/22 02:25:11;;;;;;;;;;;12.70;78.10;;;;;;5052296;28;19930;-76
2023/09/22 02:27:37;;;;;;;;;;;12.60;78.10;;;;;;5052502;28;20054;-77
2023/09/22 02:30:03;;;;;;;;;;;12.60;78.20;;;;;;5051673;28;19935;-76
2023/09/22 02:32:29;;;;;;;;;;;12.60;78.10;;;;;;5070364;28;19916;-77
2023/09/22 02:34:55;;;;;;;;;;;12.60;78.10;;;;;;5052473;28;20292;-77
2023/09/22 02:37:21;;;;;;;;;;;12.60;78.50;;;;;;5035543;28;20343;-77
2023/09/22 02:39:47;;;;;;;;;;;12.60;78.10;;;;;;5052250;28;20011;-77
2023/09/22 02:42:13;;;;;;;;;;;12.50;78.10;;;;;;5070095;28;19921;-77
2023/09/22 02:44:39;;;;;;;;;;;12.50;78.10;;;;;;5052000;28;19959;-77
2023/09/22 02:47:05;;;;;;;;;;;12.50;78.20;;;;;;5070181;28;20403;-77
2023/09/22 02:49:30;;;;;;;;;;;12.40;78.10;;;;;;5051881;28;19912;-77
2023/09/22 02:51:56;;;;;;;;;;;12.40;78.20;;;;;;5052055;28;19951;-77
2023/09/22 02:54:22;;;;;;;;;;;12.40;78.20;;;;;;5051821;28;19958;-76
2023/09/22 02:56:48;;;;;;;;;;;12.40;78.30;;;;;;5051820;28;19909;-77
2023/09/22 02:59:14;;;;;;;;;;;12.40;78.30;;;;;;5052077;28;19952;-76
2023/09/22 03:01:41;;;;;;;;;;;12.40;78.20;;;;;;5069656;28;19915;-77
2023/09/22 03:04:09;;;;;;;;;;;12.30;78.20;;;;;;5051726;28;19912;-77
2023/09/22 03:06:35;;;;;;;;;;;12.30;78.10;;;;;;5069538;28;19913;-77
2023/09/22 03:09:01;;;;;;;;;;;12.30;78.10;;;;;;5035067;28;20011;-77
2023/09/22 03:11:26;;;;;;;;;;;12.30;78.10;;;;;;5069629;28;20053;-77
2023/09/22 03:13:52;;;;;;;;;;;12.30;78.20;;;;;;5035055;28;19919;-77
2023/09/22 03:16:18;;;;;;;;;;;12.20;78.10;;;;;;5051419;28;20158;-76
2023/09/22 03:18:43;;;;;;;;;;;12.20;78.10;;;;;;5051505;28;19930;-76
2023/09/22 03:21:09;;;;;;;;;;;12.20;78.10;;;;;;5051542;28;20709;-76
2023/09/22 03:23:35;;;;;;;;;;;12.20;78.20;;;;;;5034843;28;19917;-76
2023/09/22 03:26:03;;;;;;;;;;;12.20;78.30;;;;;;5034634;28;20403;-76
2023/09/22 03:28:29;;;;;;;;;;;12.20;78.30;;;;;;5069102;28;19909;-76
2023/09/22 03:30:57;;;;;;;;;;;12.10;78.20;;;;;;5034557;28;19919;-76
2023/09/22 03:33:23;;;;;;;;;;;12.10;78.10;;;;;;5051189;28;19916;-76
2023/09/22 03:35:50;;;;;;;;;;;12.20;78.20;;;;;;5051351;28;19919;-76
2023/09/22 03:38:15;;;;;;;;;;;12.20;78.20;;;;;;5068959;28;19908;-76
2023/09/22 03:40:41;;;;;;;;;;;12.20;78.20;;;;;;5050104;28;20387;-76
2023/09/22 03:43:07;;;;;;;;;;;12.20;78.20;;;;;;5034370;28;19913;-77
2023/09/22 03:45:33;;;;;;;;;;;12.20;78.10;;;;;;5051040;28;20014;-76
2023/09/22 03:47:59;;;;;;;;;;;12.20;78.10;;;;;;5050693;28;20086;-75
2023/09/22 03:50:24;;;;;;;;;;;12.20;78.10;;;;;;5050596;28;19916;-76
2023/09/22 03:52:50;;;;;;;;;;;12.20;78.00;;;;;;5034159;28;20430;-76
2023/09/22 03:55:16;;;;;;;;;;;12.20;78.00;;;;;;5068546;28;20270;-76
2023/09/22 03:57:42;;;;;;;;;;;12.20;78.00;;;;;;5033553;28;19924;-75
2023/09/22 04:00:17;;;;;;;;;;;12.10;78.00;;;;;;5068231;28;19916;-75
2023/09/22 04:02:50;;;;;;;;;;;12.10;78.00;;;;;;5105660;27;19916;-77
2023/09/22 04:05:15;;;;;;;;;;;12.00;77.90;;;;;;5138695;27;19923;-77
2023/09/22 04:07:41;;;;;;;;;;;11.90;77.90;;;;;;5104430;28;19916;-77
2023/09/22 04:10:08;;;;;;;;;;;11.90;78.00;;;;;;5121243;28;19974;-77
2023/09/22 04:12:35;;;;;;;;;;;11.90;78.00;;;;;;5118888;27;19971;-77
2023/09/22 04:15:04;;;;;;;;;;;11.80;78.00;;;;;;5067126;28;19913;-77
2023/09/22 04:17:31;;;;;;;;;;;11.80;78.00;;;;;;5083992;28;19908;-77
2023/09/22 04:19:57;;;;;;;;;;;11.80;78.00;;;;;;5083687;28;19915;-77
2023/09/22 04:22:22;;;;;;;;;;;11.70;78.00;;;;;;5084828;28;20010;-77
2023/09/22 04:24:50;;;;;;;;;;;11.70;78.00;;;;;;5083673;28;20003;-77
2023/09/22 04:27:16;;;;;;;;;;;11.60;78.50;;;;;;5084928;28;19913;-77
2023/09/22 04:29:42;;;;;;;;;;;11.50;78.00;;;;;;5084846;28;19913;-77
2023/09/22 04:32:08;;;;;;;;;;;11.50;78.00;;;;;;5083381;28;19917;-77
2023/09/22 04:34:33;;;;;;;;;;;11.40;78.00;;;;;;5066519;28;19920;-77
2023/09/22 04:37:04;;;;;;;;;;;11.30;78.00;;;;;;5083577;28;19909;-77
2023/09/22 04:39:31;;;;;;;;;;;11.30;78.00;;;;;;5083444;28;19916;-77
2023/09/22 04:42:00;;;;;;;;;;;11.20;78.00;;;;;;5083399;28;19916;-77
2023/09/22 04:44:27;;;;;;;;;;;11.10;78.10;;;;;;5084558;28;20058;-77
2023/09/22 04:46:52;;;;;;;;;;;11.10;78.10;;;;;;5066196;28;19913;-77
2023/09/22 04:49:18;;;;;;;;;;;11.00;78.10;;;;;;5066151;28;19939;-77
2023/09/22 04:51:43;;;;;;;;;;;11.00;78.10;;;;;;5083200;28;20179;-77
2023/09/22 04:54:09;;;;;;;;;;;11.00;78.20;;;;;;5066095;28;19916;-77
2023/09/22 04:56:35;;;;;;;;;;;10.90;78.20;;;;;;5084365;28;19915;-77
2023/09/22 04:59:00;;;;;;;;;;;10.90;78.20;;;;;;5084279;28;20210;-77
2023/09/22 05:01:26;;;;;;;;;;;10.90;78.60;;;;;;5082441;28;19929;-77
2023/09/22 05:03:52;;;;;;;;;;;10.90;78.20;;;;;;5083021;28;19921;-77
2023/09/22 05:06:17;;;;;;;;;;;10.80;78.10;;;;;;5065893;28;19967;-77
2023/09/22 05:08:43;;;;;;;;;;;10.80;78.10;;;;;;5066106;28;19919;-77
2023/09/22 05:11:08;;;;;;;;;;;10.70;78.10;;;;;;5084020;28;20332;-77
2023/09/22 05:13:35;;;;;;;;;;;10.70;78.10;;;;;;5056169;28;20235;-77
2023/09/22 05:16:12;;;;;;;;;;;10.70;78.10;;;;;;5070484;28;19913;-77
2023/09/22 05:18:38;;;;;;;;;;;10.70;78.10;;;;;;5069085;28;20386;-76
2023/09/22 05:21:04;;;;;;;;;;;10.60;78.10;;;;;;5068691;28;19920;-76
2023/09/22 05:23:32;;;;;;;;;;;10.60;78.10;;;;;;5070389;28;19979;-77
2023/09/22 05:25:58;;;;;;;;;;;10.60;78.10;;;;;;5052710;28;20346;-77
2023/09/22 05:28:23;;;;;;;;;;;10.60;78.10;;;;;;5068880;28;20391;-77
2023/09/22 05:30:49;;;;;;;;;;;10.50;78.10;;;;;;5052097;28;19916;-77
2023/09/22 05:33:15;;;;;;;;;;;10.50;78.10;;;;;;5052304;28;20349;-77
2023/09/22 05:35:41;;;;;;;;;;;10.50;78.10;;;;;;5052229;28;19912;-77
2023/09/22 05:38:09;;;;;;;;;;;10.50;78.10;;;;;;5068971;28;19915;-77
2023/09/22 05:40:35;;;;;;;;;;;10.50;78.10;;;;;;5068610;28;20077;-76
2023/09/22 05:43:05;;;;;;;;;;;10.40;78.10;;;;;;5068659;28;20037;-76
2023/09/22 05:45:33;;;;;;;;;;;10.40;78.10;;;;;;5068723;28;19923;-76
2023/09/22 05:47:59;;;;;;;;;;;10.40;78.10;;;;;;5051963;28;19913;-77
2023/09/22 05:50:24;;;;;;;;;;;10.40;78.20;;;;;;5068347;28;20372;-75
2023/09/22 05:52:50;;;;;;;;;;;10.40;78.10;;;;;;5069834;28;19999;-77
2023/09/22 05:55:18;;;;;;;;;;;10.40;78.10;;;;;;5068340;28;19912;-77
2023/09/22 05:57:43;;;;;;;;;;;10.40;78.10;;;;;;5068174;28;19914;-77
2023/09/22 06:00:15;;;;;;;;;;;10.40;78.10;;;;;;5069366;28;19999;-77
2023/09/22 06:02:44;;;;;;;;;;;10.40;78.10;;;;;;5068322;28;19931;-77
2023/09/22 06:05:10;;;;;;;;;;;10.40;78.10;;;;;;5069371;28;19918;-77
2023/09/22 06:07:35;;;;;;;;;;;10.40;78.10;;;;;;5068026;28;19993;-77
2023/09/22 06:10:05;;;;;;;;;;;10.40;78.20;;;;;;5067591;28;20409;-77
2023/09/22 06:12:31;;;;;;;;;;;10.40;78.10;;;;;;5067937;28;19912;-77
2023/09/22 06:14:59;;;;;;;;;;;10.40;78.10;;;;;;5067921;28;19909;-77
2023/09/22 06:17:25;;;;;;;;;;;10.40;78.10;;;;;;5067640;28;19913;-77
2023/09/22 06:19:51;;;;;;;;;;;10.40;78.20;;;;;;5051272;28;20399;-77
2023/09/22 06:22:17;;;;;;;;;;;10.40;78.20;;;;;;5069150;28;19913;-77
2023/09/22 06:24:43;;;;;;;;;;;10.40;78.20;;;;;;5066876;28;19920;-77
2023/09/22 06:27:08;;;;;;;;;;;10.40;78.20;;;;;;5051250;28;19912;-76
2023/09/22 06:29:34;;;;;;;;;;;10.40;78.20;;;;;;5067446;28;19913;-78
2023/09/22 06:31:59;;;;;;;;;;;10.40;78.20;;;;;;5050761;28;19912;-77
2023/09/22 06:34:25;;;;;;;;;;;10.40;78.20;;;;;;5067612;28;19913;-77
2023/09/22 06:36:50;;;;;;;;;;;10.40;78.20;;;;;;5068797;28;19913;-77
2023/09/22 06:39:16;;;;;;;;;;;10.40;78.10;;;;;;5068561;28;19916;-77
2023/09/22 06:41:42;;;;;;;;;;;10.50;78.20;;;;;;5067425;28;20007;-77
2023/09/22 06:44:08;;;;;;;;;;;10.50;78.20;;;;;;5067147;28;20023;-77
2023/09/22 06:46:35;;;;;;;;;;;10.50;78.30;;;;;;5066951;28;19975;-77
2023/09/22 06:49:07;;;;;;;;;;;10.60;78.20;;;;;;5067206;28;19913;-77
2023/09/22 06:51:33;;;;;;;;;;;10.60;78.20;;;;;;5067147;28;19973;-77
2023/09/22 06:53:59;;;;;;;;;;;10.60;78.20;;;;;;5050237;28;20372;-77
2023/09/22 06:56:25;;;;;;;;;;;10.70;78.30;;;;;;5068487;28;19996;-77
2023/09/22 06:58:51;;;;;;;;;;;10.70;78.30;;;;;;5067824;28;19962;-77
2023/09/22 07:01:16;;;;;;;;;;;10.80;78.30;;;;;;5067744;28;19974;-77
2023/09/22 07:03:43;;;;;;;;;;;10.80;78.30;;;;;;5068002;28;19916;-78
2023/09/22 07:06:10;;;;;;;;;;;10.90;78.30;;;;;;5066728;28;20339;-76
2023/09/22 07:08:38;;;;;;;;;;;10.90;78.30;;;;;;5066639;28;19915;-77
2023/09/22 07:11:05;;;;;;;;;;;11.00;78.30;;;;;;5067973;28;20383;-77
2023/09/22 07:13:30;;;;;;;;;;;11.00;78.20;;;;;;5049700;28;20429;-78
2023/09/22 07:15:57;;;;;;;;;;;11.10;78.30;;;;;;5066031;28;19909;-77
2023/09/22 07:18:23;;;;;;;;;;;11.10;78.20;;;;;;5066448;28;20315;-76
2023/09/22 07:20:49;;;;;;;;;;;11.10;78.30;;;;;;5066501;28;19952;-77
2023/09/22 07:23:14;;;;;;;;;;;11.20;78.30;;;;;;5066785;28;19960;-76
2023/09/22 07:25:40;;;;;;;;;;;11.20;78.30;;;;;;5066659;28;19971;-76
2023/09/22 07:28:07;;;;;;;;;;;11.30;78.40;;;;;;5050202;28;19917;-76
2023/09/22 07:30:34;;;;;;;;;;;11.40;78.50;;;;;;5066090;28;19909;-77
2023/09/22 07:33:00;;;;;;;;;;;11.50;78.60;;;;;;5066087;28;19914;-77
2023/09/22 07:35:26;;;;;;;;;;;11.60;78.70;;;;;;5065972;28;19940;-79
2023/09/22 07:37:51;;;;;;;;;;;11.70;78.70;;;;;;5066032;28;19963;-76
2023/09/22 07:40:17;;;;;;;;;;;11.80;79.10;;;;;;5049290;28;19943;-76
2023/09/22 07:42:44;;;;;;;;;;;12.00;78.80;;;;;;5065128;28;20003;-76
2023/09/22 07:45:10;;;;;;;;;;;12.20;78.80;;;;;;5065168;28;19970;-81
2023/09/22 07:47:36;;;;;;;;;;;12.30;78.70;;;;;;5065797;28;19944;-79
2023/09/22 07:50:01;;;;;;;;;;;12.40;78.70;;;;;;5049140;28;19924;-80
2023/09/22 07:52:28;;;;;;;;;;;12.60;78.80;;;;;;5049526;28;19916;-78
2023/09/22 07:54:54;;;;;;;;;;;12.80;78.80;;;;;;5049826;28;19917;-78
2023/09/22 07:57:20;;;;;;;;;;;13.10;79.00;;;;;;5067381;28;20011;-79
2023/09/22 07:59:45;;;;;;;;;;;13.30;78.90;;;;;;5066670;28;19912;-79
2023/09/22 08:02:11;;;;;;;;;;;13.50;78.90;;;;;;5068136;28;19973;-79
2023/09/22 08:04:37;;;;;;;;;;;13.80;78.80;;;;;;5052001;28;19996;-79
2023/09/22 08:07:06;;;;;;;;;;;13.90;78.60;;;;;;5070908;28;19920;-80
2023/09/22 08:09:32;;;;;;;;;;;14.10;78.60;;;;;;5067847;28;20021;-81
2023/09/22 08:11:57;;;;;;;;;;;14.20;78.70;;;;;;5067664;28;20044;-82
2023/09/22 08:14:25;;;;;;;;;;;14.20;78.50;;;;;;5068406;28;19912;-81
2023/09/22 08:16:50;;;;;;;;;;;14.30;78.50;;;;;;5067018;28;19953;-80
2023/09/22 08:19:16;;;;;;;;;;;14.30;78.40;;;;;;5051353;28;19912;-80
2023/09/22 08:21:42;;;;;;;;;;;14.30;78.30;;;;;;5068146;28;19916;-80
2023/09/22 08:24:08;;;;;;;;;;;14.30;78.30;;;;;;5067759;28;19939;-80
2023/09/22 08:26:34;;;;;;;;;;;14.30;78.40;;;;;;5068040;28;19912;-81
2023/09/22 08:29:00;;;;;;;;;;;14.40;79.00;;;;;;5069158;28;19913;-81
2023/09/22 08:31:26;;;;;;;;;;;14.70;79.10;;;;;;5067852;28;20025;-80
2023/09/22 08:33:52;;;;;;;;;;;15.10;79.30;;;;;;5069079;28;19917;-80
2023/09/22 08:36:18;;;;;;;;;;;15.30;78.90;;;;;;5069345;28;19973;-80
2023/09/22 08:38:45;;;;;;;;;;;15.50;78.80;;;;;;5051097;28;20372;-76
2023/09/22 08:41:11;;;;;;;;;;;15.60;79.00;;;;;;5069035;28;19912;-80
2023/09/22 08:43:37;;;;;;;;;;;16.10;79.70;;;;;;5068331;28;19958;-80
2023/09/22 08:46:03;;;;;;;;;;;16.80;80.50;;;;;;5050886;28;20334;-81
2023/09/22 08:48:29;;;;;;;;;;;17.60;80.00;;;;;;5070131;28;19913;-74
2023/09/22 08:50:55;;;;;;;;;;;18.20;79.70;;;;;;5073360;28;20443;-74
2023/09/22 08:53:20;;;;;;;;;;;19.20;80.20;;;;;;5073391;28;19913;-75
2023/09/22 08:55:49;;;;;;;;;;;19.50;78.60;;;;;;5072925;28;20473;-74
2023/09/22 08:58:18;;;;;;;;;;;19.30;77.90;;;;;;5071956;28;20053;-74
2023/09/22 09:00:48;;;;;;;;;;;19.30;78.40;;;;;;5070809;28;19995;-75
2023/09/22 09:03:14;;;;;;;;;;;19.50;79.10;;;;;;5070829;28;19913;-76
2023/09/22 09:05:40;;;;;;;;;;;19.70;79.00;;;;;;5066841;28;19909;-76
2023/09/22 09:08:24;;;;;;;;;;;19.80;79.20;;;;;;5070775;28;19959;-76
2023/09/22 09:10:49;;;;;;;;;;;20.20;79.60;;;;;;5070588;28;19913;-74
2023/09/22 09:13:16;;;;;;;;;;;20.10;78.50;;;;;;5071962;28;20229;-74
2023/09/22 09:15:43;;;;;;;;;;;19.70;78.30;;;;;;5070330;28;20017;-76
2023/09/22 09:18:11;;;;;;;;;;;20.00;80.10;;;;;;5070898;28;19912;-77
2023/09/22 09:20:40;;;;;;;;;;;20.90;80.70;;;;;;5067778;28;19996;-78
2023/09/22 09:23:13;;;;;;;;;;;21.40;80.20;;;;;;5068630;28;19912;-77
2023/09/22 09:25:43;;;;;;;;;;;21.40;78.80;;;;;;5068180;28;19983;-77
2023/09/22 09:28:11;;;;;;;;;;;21.00;78.60;;;;;;5070095;28;20317;-77
2023/09/22 09:30:37;;;;;;;;;;;20.70;79.10;;;;;;5065010;28;19909;-77
2023/09/22 09:33:09;;;;;;;;;;;20.60;79.20;;;;;;5070177;28;19948;-77
2023/09/22 09:35:39;;;;;;;;;;;20.30;79.00;;;;;;5068816;28;19920;-76
2023/09/22 09:38:05;;;;;;;;;;;20.10;79.20;;;;;;5070516;28;20000;-77
2023/09/22 09:40:32;;;;;;;;;;;19.90;79.20;;;;;;5068523;28;19963;-77
2023/09/22 09:42:58;;;;;;;;;;;19.80;79.60;;;;;;5069334;28;19926;-77
2023/09/22 09:45:29;;;;;;;;;;;19.70;79.40;;;;;;5069716;28;20365;-77
2023/09/22 09:47:54;;;;;;;;;;;19.50;79.00;;;;;;5064851;28;19955;-77
2023/09/22 09:50:20;;;;;;;;;;;19.10;79.00;;;;;;5069902;28;19912;-78
2023/09/22 09:52:48;;;;;;;;;;;19.00;79.40;;;;;;5069855;28;19912;-76
2023/09/22 09:55:14;;;;;;;;;;;19.20;80.20;;;;;;5068570;28;20408;-76
2023/09/22 09:57:43;;;;;;;;;;;19.60;80.10;;;;;;5069869;28;19982;-77
2023/09/22 10:00:13;;;;;;;;;;;19.70;79.20;;;;;;5070008;28;19940;-75
2023/09/22 10:02:45;;;;;;;;;;;19.60;79.10;;;;;;5069559;28;19924;-79
2023/09/22 10:05:15;;;;;;;;;;;19.60;79.30;;;;;;5070155;28;20368;-75
2023/09/22 10:07:43;;;;;;;;;;;19.60;79.00;;;;;;5069513;28;19913;-75
2023/09/22 10:10:09;;;;;;;;;;;19.40;78.80;;;;;;5068356;28;19909;-72
2023/09/22 10:12:35;;;;;;;;;;;19.10;78.70;;;;;;5069886;28;19909;-77
2023/09/22 10:15:04;;;;;;;;;;;18.80;78.80;;;;;;5072245;28;19912;-81
2023/09/22 10:17:30;;;;;;;;;;;18.70;79.30;;;;;;5054132;28;19916;-78
2023/09/22 10:19:57;;;;;;;;;;;18.80;79.80;;;;;;5070499;28;20305;-78
2023/09/22 10:22:22;;;;;;;;;;;18.90;79.50;;;;;;5070679;28;20372;-75
2023/09/22 10:25:06;;;;;;;;;;;19.10;80.00;;;;;;5069180;28;19909;-79
2023/09/22 10:27:52;;;;;;;;;;;19.40;80.30;;;;;;5068558;28;19909;-77
2023/09/22 10:30:19;;;;;;;;;;;20.30;81.60;;;;;;5069075;28;19952;-76
2023/09/22 10:32:45;;;;;;;;;;;21.50;82.00;;;;;;5070348;28;20576;-78
2023/09/22 10:35:12;;;;;;;;;;;22.70;82.00;;;;;;5068238;28;19924;-80
2023/09/22 10:37:55;;;;;;;;;;;23.40;80.60;;;;;;5051338;28;20443;-77
2023/09/22 10:40:22;;;;;;;;;;;23.40;79.20;;;;;;5068204;28;20281;-78
2023/09/22 10:42:52;;;;;;;;;;;23.40;79.50;;;;;;5069690;28;19947;-78
2023/09/22 10:45:21;;;;;;;;;;;23.80;80.30;;;;;;5069260;28;19941;-78
2023/09/22 10:47:49;;;;;;;;;;;24.30;80.30;;;;;;5069281;28;20317;-79
2023/09/22 10:50:26;;;;;;;;;;;24.80;79.90;;;;;;5067841;28;20352;-78
2023/09/22 10:53:05;;;;;;;;;;;24.90;80.10;;;;;;5069394;28;19937;-75
2023/09/22 10:55:34;;;;;;;;;;;24.20;80.00;;;;;;5068837;28;19933;-78
2023/09/22 10:58:01;;;;;;;;;;;23.90;81.30;;;;;;5068624;28;19912;-78
2023/09/22 11:00:27;;;;;;;;;;;23.90;81.20;;;;;;5068844;28;19943;-78
2023/09/22 11:02:54;;;;;;;;;;;23.50;80.50;;;;;;5063350;28;19921;-75
2023/09/22 11:05:20;;;;;;;;;;;22.90;79.10;;;;;;5067957;28;20098;-74
2023/09/22 11:07:47;;;;;;;;;;;22.20;78.70;;;;;;5068072;28;20118;-75
2023/09/22 11:10:19;;;;;;;;;;;21.50;78.90;;;;;;5067654;28;19908;-76
2023/09/22 11:12:52;;;;;;;;;;;21.00;79.40;;;;;;5057094;28;19912;-75
2023/09/22 11:15:18;;;;;;;;;;;20.80;80.40;;;;;;5060883;28;19909;-76
2023/09/22 11:17:47;;;;;;;;;;;20.80;80.70;;;;;;5065156;28;20003;-76
2023/09/22 11:20:27;;;;;;;;;;;21.40;82.20;;;;;;5063726;28;19912;-77
2023/09/22 11:22:53;;;;;;;;;;;22.30;82.10;;;;;;5067648;28;19912;-76
2023/09/22 11:25:21;;;;;;;;;;;22.50;80.90;;;;;;5068448;28;19919;-76
2023/09/22 11:27:50;;;;;;;;;;;23.00;82.10;;;;;;5066745;28;19916;-75
2023/09/22 11:30:17;;;;;;;;;;;23.30;80.60;;;;;;5068041;28;19995;-77
2023/09/22 11:32:44;;;;;;;;;;;23.80;81.20;;;;;;5067868;28;20279;-75
2023/09/22 11:35:26;;;;;;;;;;;23.90;79.90;;;;;;5067951;28;19922;-76
2023/09/22 11:37:52;;;;;;;;;;;23.40;78.80;;;;;;5064906;28;19943;-75
2023/09/22 11:40:18;;;;;;;;;;;22.70;78.80;;;;;;5068122;28;19966;-74
2023/09/22 11:42:47;;;;;;;;;;;22.60;80.10;;;;;;5067538;28;19924;-74
2023/09/22 11:45:18;;;;;;;;;;;23.00;81.00;;;;;;5068002;28;19951;-73
2023/09/22 11:47:44;;;;;;;;;;;23.00;80.20;;;;;;5066393;28;19958;-74
2023/09/22 11:50:19;;;;;;;;;;;22.50;79.30;;;;;;5066900;28;19947;-73
2023/09/22 11:52:45;;;;;;;;;;;22.20;80.10;;;;;;5068149;28;19954;-75
2023/09/22 11:55:10;;;;;;;;;;;21.70;80.10;;;;;;5051778;28;19920;-76
2023/09/22 11:57:36;;;;;;;;;;;21.20;79.70;;;;;;5066758;28;19919;-75
2023/09/22 12:00:02;;;;;;;;;;;20.70;80.00;;;;;;5068533;28;20370;-76
2023/09/22 12:02:28;;;;;;;;;;;21.10;81.80;;;;;;5067829;28;19939;-77
2023/09/22 12:04:53;;;;;;;;;;;21.90;82.50;;;;;;5069086;28;19909;-77
2023/09/22 12:07:19;;;;;;;;;;;22.90;82.40;;;;;;5068648;28;19919;-77
2023/09/22 12:09:45;;;;;;;;;;;23.70;82.00;;;;;;5068863;28;19919;-78
2023/09/22 12:12:12;;;;;;;;;;;24.50;81.80;;;;;;5068845;28;19916;-78
2023/09/22 12:14:37;;;;;;;;;;;25.30;81.60;;;;;;5068874;28;19912;-78
2023/09/22 12:17:03;;;;;;;;;;;25.90;80.80;;;;;;5067642;28;19912;-79
2023/09/22 12:19:28;;;;;;;;;;;26.10;80.20;;;;;;5068583;28;19966;-80
2023/09/22 12:21:54;;;;;;;;;;;25.70;78.80;;;;;;5068624;28;19923;-78
2023/09/22 12:24:19;;;;;;;;;;;24.80;77.90;;;;;;5074229;28;20269;-79
2023/09/22 12:26:46;;;;;;;;;;;23.70;77.60;;;;;;5073676;28;19912;-78
2023/09/22 12:29:13;;;;;;;;;;;22.70;77.80;;;;;;5070969;28;19913;-78
2023/09/22 12:31:39;;;;;;;;;;;21.90;78.30;;;;;;5072659;28;19935;-78
2023/09/22 12:34:04;;;;;;;;;;;21.40;79.00;;;;;;5055239;28;19912;-78
2023/09/22 12:36:30;;;;;;;;;;;21.30;80.40;;;;;;5071694;28;19919;-79
2023/09/22 12:38:55;;;;;;;;;;;21.80;81.80;;;;;;5055132;28;19919;-79
2023/09/22 12:41:21;;;;;;;;;;;22.50;82.30;;;;;;5071137;28;19989;-78
2023/09/22 12:43:47;;;;;;;;;;;23.20;82.10;;;;;;5073340;28;19948;-79
2023/09/22 12:46:13;;;;;;;;;;;23.50;81.30;;;;;;5055018;28;19913;-78
2023/09/22 12:48:40;;;;;;;;;;;23.40;80.40;;;;;;5071799;28;19928;-78
2023/09/22 12:51:05;;;;;;;;;;;23.30;80.50;;;;;;5070632;28;19963;-78
2023/09/22 12:53:31;;;;;;;;;;;23.00;80.00;;;;;;5070518;28;19951;-78
2023/09/22 12:55:57;;;;;;;;;;;23.00;80.80;;;;;;5070727;28;20370;-76
2023/09/22 12:58:26;;;;;;;;;;;23.10;81.20;;;;;;5068005;28;20069;-77
2023/09/22 13:00:59;;;;;;;;;;;23.30;81.60;;;;;;5052162;28;20366;-67
2023/09/22 13:03:25;;;;;;;;;;;23.50;81.70;;;;;;5070409;28;19975;-78
2023/09/22 13:05:51;;;;;;;;;;;23.80;81.40;;;;;;5070328;28;20328;-78
2023/09/22 13:08:17;;;;;;;;;;;23.80;81.40;;;;;;5070673;28;19916;-78
2023/09/22 13:10:43;;;;;;;;;;;24.00;81.40;;;;;;5070583;28;19916;-76
2023/09/22 13:13:09;;;;;;;;;;;23.90;80.90;;;;;;5069291;28;19909;-78
2023/09/22 13:15:35;;;;;;;;;;;23.90;81.20;;;;;;5072726;28;20263;-77
2023/09/22 13:18:01;;;;;;;;;;;23.80;80.70;;;;;;5070907;28;19946;-77
2023/09/22 13:20:26;;;;;;;;;;;23.40;80.40;;;;;;5069418;28;19942;-79
2023/09/22 13:22:52;;;;;;;;;;;22.90;79.80;;;;;;5053000;28;19923;-76
2023/09/22 13:25:18;;;;;;;;;;;22.30;79.70;;;;;;5070699;28;19909;-77
2023/09/22 13:27:44;;;;;;;;;;;21.60;80.10;;;;;;5068908;28;20542;-77
2023/09/22 13:30:10;;;;;;;;;;;21.10;80.80;;;;;;5052341;28;19967;-78
2023/09/22 13:32:35;;;;;;;;;;;20.70;81.00;;;;;;5068939;28;20422;-76
2023/09/22 13:35:03;;;;;;;;;;;20.40;80.60;;;;;;5069167;28;19946;-78
2023/09/22 13:37:28;;;;;;;;;;;20.40;81.60;;;;;;5051532;28;19951;-77
2023/09/22 13:39:54;;;;;;;;;;;20.80;82.40;;;;;;5068332;28;19951;-76
2023/09/22 13:42:20;;;;;;;;;;;21.30;82.40;;;;;;5067691;28;19916;-76
2023/09/22 13:44:45;;;;;;;;;;;21.50;81.30;;;;;;5050995;28;19974;-76
2023/09/22 13:47:11;;;;;;;;;;;21.60;80.90;;;;;;5068957;28;19915;-76
2023/09/22 13:49:37;;;;;;;;;;;21.70;80.20;;;;;;5067838;28;19920;-78
2023/09/22 13:52:03;;;;;;;;;;;21.40;79.10;;;;;;5071053;28;20456;-76
2023/09/22 13:54:29;;;;;;;;;;;21.00;78.70;;;;;;5069639;28;19909;-76
2023/09/22 13:56:54;;;;;;;;;;;20.60;78.80;;;;;;5068868;28;20042;-77
2023/09/22 13:59:20;;;;;;;;;;;20.20;79.00;;;;;;5068966;28;19917;-78
2023/09/22 14:01:46;;;;;;;;;;;19.90;79.20;;;;;;5069211;28;19924;-79
2023/09/22 14:04:11;;;;;;;;;;;19.60;79.20;;;;;;5069226;28;20318;-78
2023/09/22 14:06:37;;;;;;;;;;;19.40;79.40;;;;;;5068093;28;19920;-75
2023/09/22 14:09:04;;;;;;;;;;;19.20;79.70;;;;;;5068405;28;19909;-74
2023/09/22 14:11:30;;;;;;;;;;;19.10;79.80;;;;;;5069677;28;20011;-74
2023/09/22 14:13:56;;;;;;;;;;;19.10;79.70;;;;;;5068152;28;19962;-73
2023/09/22 14:16:24;;;;;;;;;;;19.10;79.60;;;;;;5068880;28;19912;-74